PLA weather

Planadas Airport
Betania, Tolima Department, Colombia

Public forecast

Using degrees Celsius for public forecast. Weather courtesy of forecast.io.

Closest aviation weather report (METAR) to Planadas Airport

Closest report is Benito Salas Airport, 32.2 nm (59.5 km) SE. Retrieved 2019/10/22 17:00 UTC (39 minutes ago):

SKNV 221700Z VRB05KT 9999 SCT030 30/21 A2989

Closest aviation forecast (TAF) to Planadas Airport

Closest forecast is Alfonso Bonilla Aragon International Airport, 43.4 nm (80.3 km) WNW. Retrieved 2019/10/22 12:37 UTC (5 hours ago):

TAF SKCL 221030Z 2212/2312 VRB03KT 9999 SCT017 BKN080 TEMPO 2212/2213 4000 BR BKN010 BECMG 2218/2219 33011KT PROB40 TEMPO 2219/2223 5000 TSRA SCT017CB SCT020 BECMG 2303/2305 VRB03KT TX30/2219Z TN19/2311Z